Time;durP1;ratioP1;P1;durP2;ratioP2;P2;SDS_P1;SDS_P2;PMS_P1;PMS_P2;Temp;Humidity;BMP_temperature;BMP_pressure;BME280_temperature;BME280_humidity;BME280_pressure;Samples;Min_cycle;Max_cycle;Signal;HPM_P1;HPM_P2
2024/02/01 00:00:19;;;;;;;1.57;1.10;;;8.40;98.20;;;;;;4937036;29;20838;-78
2024/02/01 00:02:46;;;;;;;1.60;1.20;;;8.40;98.20;;;;;;4954800;28;20478;-77
2024/02/01 00:05:13;;;;;;;1.60;1.20;;;8.50;98.20;;;;;;4949108;28;20498;-78
2024/02/01 00:07:39;;;;;;;1.60;1.20;;;8.50;98.20;;;;;;4956572;28;20537;-78
2024/02/01 00:10:08;;;;;;;1.60;1.30;;;8.50;98.20;;;;;;4955123;28;20462;-78
2024/02/01 00:12:35;;;;;;;1.60;1.20;;;8.50;98.20;;;;;;4950325;28;20485;-77
2024/02/01 00:15:03;;;;;;;1.60;1.20;;;8.60;98.20;;;;;;4969007;28;20490;-78
2024/02/01 00:17:30;;;;;;;1.60;1.20;;;8.60;98.20;;;;;;4971402;28;20484;-77
2024/02/01 00:19:57;;;;;;;1.60;1.20;;;8.60;98.20;;;;;;4969853;28;20984;-78
2024/02/01 00:22:24;;;;;;;1.57;1.20;;;8.60;98.20;;;;;;4969382;28;20477;-79
2024/02/01 00:24:53;;;;;;;1.53;1.20;;;8.60;98.20;;;;;;4971431;28;20493;-78
2024/02/01 00:27:19;;;;;;;1.53;1.20;;;8.70;98.20;;;;;;4958195;28;20490;-78
2024/02/01 00:29:46;;;;;;;1.60;1.20;;;8.70;98.20;;;;;;4969617;28;20466;-78
2024/02/01 00:34:55;;;;;;;1.53;1.10;;;8.70;98.20;;;;;;4980359;28;20473;-80
2024/02/01 00:37:22;;;;;;;2.17;1.97;;;8.80;98.20;;;;;;4975820;28;20549;-82
2024/02/01 00:39:49;;;;;;;1.60;1.20;;;8.80;98.20;;;;;;4984455;28;20548;-78
2024/02/01 00:42:15;;;;;;;1.60;1.20;;;8.80;98.20;;;;;;4978347;28;20585;-79
2024/02/01 00:44:42;;;;;;;1.60;1.20;;;8.80;98.20;;;;;;4983665;28;20557;-79
2024/02/01 00:47:09;;;;;;;1.60;1.20;;;8.80;98.20;;;;;;4968297;28;20567;-80
2024/02/01 00:49:36;;;;;;;1.60;1.20;;;8.80;98.20;;;;;;4972278;28;20467;-79
2024/02/01 00:52:05;;;;;;;1.57;1.10;;;8.80;98.20;;;;;;4974290;28;20473;-82
2024/02/01 00:54:36;;;;;;;1.53;1.20;;;8.80;98.20;;;;;;4975173;28;20554;-81
2024/02/01 00:57:04;;;;;;;1.57;1.20;;;8.80;98.20;;;;;;4968830;28;20561;-82
2024/02/01 00:59:31;;;;;;;1.57;1.10;;;8.90;98.20;;;;;;4978041;28;20597;-80
2024/02/01 01:01:57;;;;;;;1.60;1.10;;;8.90;98.20;;;;;;4967760;28;21055;-81
2024/02/01 01:04:24;;;;;;;1.60;1.20;;;8.90;98.20;;;;;;4972027;28;20490;-80
2024/02/01 01:06:51;;;;;;;1.60;1.20;;;8.90;98.20;;;;;;4965077;28;20538;-83
2024/02/01 01:09:19;;;;;;;1.60;1.30;;;8.90;98.20;;;;;;4971660;28;20465;-83
2024/02/01 01:12:00;;;;;;;1.60;1.20;;;8.90;98.20;;;;;;4963269;28;20781;-84
2024/02/01 01:20:03;;;;;;;1.53;1.10;;;8.90;98.20;;;;;;4964154;28;20477;-85
2024/02/01 01:22:44;;;;;;;1.53;1.10;;;8.90;98.20;;;;;;4963760;28;21036;-83
2024/02/01 01:25:28;;;;;;;2.10;1.80;;;8.90;98.20;;;;;;4965482;28;20467;-85
2024/02/01 01:28:02;;;;;;;1.53;1.13;;;8.80;98.20;;;;;;4961901;28;20469;-85
2024/02/01 01:30:33;;;;;;;2.00;1.80;;;8.80;98.20;;;;;;4964274;28;20557;-85
2024/02/01 01:33:02;;;;;;;1.50;1.10;;;8.80;98.20;;;;;;4967332;28;20484;-86
2024/02/01 01:35:29;;;;;;;1.50;1.20;;;8.80;98.20;;;;;;4967042;28;20470;-86
2024/02/01 01:37:56;;;;;;;2.10;1.87;;;8.70;98.20;;;;;;4972300;28;20504;-86
2024/02/01 01:40:30;;;;;;;1.57;1.20;;;8.70;98.20;;;;;;4971084;28;20466;-86
2024/02/01 01:43:00;;;;;;;2.80;2.60;;;8.70;98.20;;;;;;4955909;28;20506;-86
2024/02/01 01:45:33;;;;;;;1.50;1.10;;;8.70;98.20;;;;;;4973626;28;20474;-86
2024/02/01 01:48:00;;;;;;;1.53;1.10;;;8.70;98.20;;;;;;4968374;28;20480;-85
2024/02/01 01:50:27;;;;;;;1.60;1.20;;;8.70;98.20;;;;;;4969482;28;20458;-87
2024/02/01 01:56:01;;;;;;;1.53;1.00;;;8.70;98.20;;;;;;4964024;28;20553;-87
2024/02/01 01:58:33;;;;;;;1.50;1.20;;;8.60;98.20;;;;;;4978225;28;20489;-87
2024/02/01 02:01:01;;;;;;;1.53;1.20;;;8.60;98.20;;;;;;4958597;28;20466;-86
2024/02/01 02:06:28;;;;;;;1.53;1.10;;;8.60;98.20;;;;;;4957470;28;20881;-84
2024/02/01 02:08:58;;;;;;;1.60;1.30;;;8.60;98.20;;;;;;4972186;28;20528;-86
2024/02/01 02:11:36;;;;;;;1.53;1.17;;;8.60;98.20;;;;;;4959714;28;20473;-87
2024/02/01 02:14:12;;;;;;;1.50;1.20;;;8.60;98.20;;;;;;4977916;28;20581;-88
2024/02/01 02:16:43;;;;;;;1.60;1.30;;;8.60;98.20;;;;;;4960911;28;20496;-86
2024/02/01 02:19:17;;;;;;;1.57;1.20;;;8.60;98.20;;;;;;4977914;28;20504;-88
2024/02/01 02:22:02;;;;;;;1.57;1.20;;;8.50;98.20;;;;;;4962218;28;20745;-86
2024/02/01 02:24:32;;;;;;;1.60;1.20;;;8.50;98.20;;;;;;4969846;28;20514;-84
2024/02/01 02:27:03;;;;;;;1.53;1.20;;;8.50;98.20;;;;;;4974855;28;20582;-86
2024/02/01 02:29:32;;;;;;;1.60;1.20;;;8.50;98.20;;;;;;4979707;28;20469;-87
2024/02/01 02:31:59;;;;;;;1.53;1.10;;;8.50;98.20;;;;;;4966180;28;21194;-86
2024/02/01 02:34:29;;;;;;;1.57;1.10;;;8.50;98.20;;;;;;4978047;28;20486;-86
2024/02/01 02:37:14;;;;;;;1.60;1.20;;;8.50;98.20;;;;;;4959736;28;20585;-86
2024/02/01 02:39:51;;;;;;;1.60;1.20;;;8.60;98.20;;;;;;4973169;28;20477;-87
2024/02/01 02:42:18;;;;;;;1.57;1.10;;;8.60;98.20;;;;;;4965032;28;20532;-87
2024/02/01 02:44:55;;;;;;;1.57;1.10;;;8.50;98.20;;;;;;4975253;28;20477;-85
2024/02/01 02:47:22;;;;;;;1.60;1.20;;;8.50;98.20;;;;;;4978841;28;20564;-85
2024/02/01 02:49:51;;;;;;;1.57;1.20;;;8.50;98.20;;;;;;4974190;28;20477;-86
2024/02/01 02:52:26;;;;;;;1.60;1.20;;;8.50;98.20;;;;;;4968564;28;20829;-90
2024/02/01 02:54:57;;;;;;;1.57;1.20;;;8.50;98.20;;;;;;4973236;28;20573;-89
2024/02/01 02:57:24;;;;;;;1.53;1.10;;;8.50;98.20;;;;;;4965276;28;20489;-86
2024/02/01 02:59:51;;;;;;;1.57;1.20;;;8.50;98.20;;;;;;4969165;28;21081;-85
2024/02/01 03:02:17;;;;;;;3.00;2.33;;;8.50;98.20;;;;;;4967830;28;20600;-85
2024/02/01 03:04:46;;;;;;;1.53;1.10;;;8.50;98.20;;;;;;4971880;28;20856;-84
2024/02/01 03:07:13;;;;;;;1.60;1.20;;;8.50;98.20;;;;;;4969041;28;21312;-84
2024/02/01 03:10:01;;;;;;;1.60;1.10;;;8.50;98.20;;;;;;4975600;28;20553;-84
2024/02/01 03:12:33;;;;;;;1.60;1.30;;;8.50;98.20;;;;;;4962676;28;21045;-84
2024/02/01 03:15:04;;;;;;;1.57;1.20;;;8.60;98.20;;;;;;4976443;28;20824;-85
2024/02/01 03:17:34;;;;;;;1.53;1.20;;;8.60;98.20;;;;;;4972072;28;20480;-84
2024/02/01 03:20:17;;;;;;;1.53;1.10;;;8.60;98.20;;;;;;4973161;28;20458;-84
2024/02/01 03:25:36;;;;;;;1.60;1.20;;;8.60;98.20;;;;;;4973490;28;21092;-87
2024/02/01 03:28:04;;;;;;;1.60;1.20;;;8.60;98.20;;;;;;4981261;28;20477;-87
2024/02/01 03:30:37;;;;;;;1.60;1.30;;;8.60;98.20;;;;;;4974576;28;20466;-85
2024/02/01 03:33:19;;;;;;;1.60;1.50;;;8.60;98.20;;;;;;4981528;28;20497;-87
2024/02/01 03:38:58;;;;;;;1.50;1.10;;;8.60;98.20;;;;;;4952381;28;20485;-87
2024/02/01 03:41:27;;;;;;;1.53;1.10;;;8.60;98.20;;;;;;4963037;28;20482;-85
2024/02/01 03:43:54;;;;;;;1.57;1.10;;;8.60;98.20;;;;;;4976086;28;20548;-85
2024/02/01 03:46:22;;;;;;;1.57;1.20;;;8.60;98.20;;;;;;4961002;28;20489;-84
2024/02/01 03:48:58;;;;;;;1.53;1.20;;;8.60;98.20;;;;;;4980764;28;20544;-86
2024/02/01 03:51:25;;;;;;;1.57;1.20;;;8.60;98.20;;;;;;4962681;28;21041;-86
2024/02/01 03:53:54;;;;;;;1.53;1.10;;;8.60;98.20;;;;;;4979126;28;20481;-86
2024/02/01 03:56:23;;;;;;;1.60;1.20;;;8.60;98.20;;;;;;4965799;28;20477;-87
2024/02/01 03:58:51;;;;;;;1.60;1.20;;;8.60;98.20;;;;;;4976073;28;20466;-86
2024/02/01 04:01:18;;;;;;;1.60;1.20;;;8.60;98.20;;;;;;4964465;28;20473;-85
2024/02/01 04:03:49;;;;;;;1.53;1.20;;;8.60;98.20;;;;;;4985579;28;20517;-86
2024/02/01 04:06:17;;;;;;;1.57;1.20;;;8.60;98.20;;;;;;4960334;28;21055;-85
2024/02/01 04:08:48;;;;;;;1.60;1.10;;;8.70;98.20;;;;;;4970974;28;20536;-87
2024/02/01 04:11:30;;;;;;;;;;;;;;;;;;;;;
2024/02/01 04:14:00;;;;;;;1.57;1.17;;;8.70;98.20;;;;;;4973833;28;21076;-86
2024/02/01 04:16:29;;;;;;;1.53;1.20;;;8.70;98.20;;;;;;4967179;28;20543;-86
2024/02/01 04:18:58;;;;;;;1.57;1.10;;;8.70;98.20;;;;;;4981502;28;20466;-87
2024/02/01 04:21:28;;;;;;;1.53;1.20;;;8.70;98.20;;;;;;4961306;28;20481;-84
2024/02/01 04:23:58;;;;;;;1.60;1.30;;;8.70;98.20;;;;;;4976956;28;20491;-85
2024/02/01 04:26:25;;;;;;;1.53;1.10;;;8.70;98.20;;;;;;4967404;28;20500;-85
2024/02/01 04:29:03;;;;;;;1.53;1.10;;;8.70;98.20;;;;;;4971712;28;20566;-84
2024/02/01 04:31:31;;;;;;;1.60;1.20;;;8.80;98.20;;;;;;4964271;28;20531;-84
2024/02/01 04:34:07;;;;;;;1.60;1.10;;;8.80;98.20;;;;;;4976151;28;20489;-84
2024/02/01 04:36:33;;;;;;;1.57;1.20;;;8.80;98.20;;;;;;4968672;28;20504;-85
2024/02/01 04:39:11;;;;;;;1.60;1.30;;;8.80;98.20;;;;;;4977200;28;20477;-85
2024/02/01 04:41:40;;;;;;;1.60;1.20;;;8.80;98.20;;;;;;4963405;28;21031;-83
2024/02/01 04:44:10;;;;;;;1.57;1.13;;;8.80;98.20;;;;;;4973288;28;20513;-86
2024/02/01 04:46:38;;;;;;;1.60;1.10;;;8.80;98.20;;;;;;4960964;28;20558;-85
2024/02/01 04:49:14;;;;;;;1.53;1.20;;;8.80;98.20;;;;;;4975471;28;21036;-86
2024/02/01 04:51:41;;;;;;;1.60;1.20;;;8.80;98.20;;;;;;4971501;28;20468;-85
2024/02/01 04:54:11;;;;;;;1.57;1.20;;;8.80;98.20;;;;;;4984055;28;20561;-85
2024/02/01 04:56:39;;;;;;;1.60;1.20;;;8.80;98.20;;;;;;4962969;28;20488;-85
2024/02/01 04:59:08;;;;;;;1.57;1.13;;;8.80;98.20;;;;;;4985564;28;20997;-86
2024/02/01 05:01:35;;;;;;;1.60;1.10;;;8.80;98.20;;;;;;4975157;28;20658;-85
2024/02/01 05:04:13;;;;;;;1.60;1.20;;;8.80;98.20;;;;;;4989395;28;20497;-85
2024/02/01 05:06:39;;;;;;;1.60;1.20;;;8.80;98.20;;;;;;4963573;28;20516;-85
2024/02/01 05:11:58;;;;;;;1.60;1.30;;;8.80;98.20;;;;;;4959137;28;20477;-86
2024/02/01 05:14:25;;;;;;;2.23;2.03;;;8.80;98.20;;;;;;4972967;28;20500;-86
2024/02/01 05:16:54;;;;;;;1.60;1.20;;;8.80;98.20;;;;;;4962412;28;20482;-85
2024/02/01 05:19:33;;;;;;;1.53;1.10;;;8.80;98.20;;;;;;4979702;28;20502;-86
2024/02/01 05:25:15;;;;;;;1.57;1.20;;;8.80;98.20;;;;;;4971070;28;20552;-85
2024/02/01 05:34:24;;;;;;;1.60;1.30;;;8.80;98.20;;;;;;4916074;28;20759;-85
2024/02/01 05:37:01;;;;;;;1.57;1.10;;;8.80;98.20;;;;;;4967932;28;20477;-84
2024/02/01 05:39:28;;;;;;;1.57;1.20;;;8.80;98.20;;;;;;4977189;28;20464;-85
2024/02/01 05:42:12;;;;;;;1.50;1.20;;;8.80;98.20;;;;;;4963369;28;20873;-85
2024/02/01 05:44:38;;;;;;;1.53;1.20;;;8.80;98.20;;;;;;4974751;28;20656;-85
2024/02/01 05:47:06;;;;;;;1.57;1.10;;;8.80;98.20;;;;;;4969298;28;20488;-84
2024/02/01 05:50:17;;;;;;;1.60;1.10;;;8.90;98.20;;;;;;4975172;28;20470;-84
2024/02/01 05:53:03;;;;;;;1.53;1.10;;;8.80;98.20;;;;;;4863841;29;20567;-85
2024/02/01 05:55:29;;;;;;;1.57;1.20;;;8.90;98.20;;;;;;4880381;29;21071;-83
2024/02/01 05:58:06;;;;;;;1.57;1.10;;;8.90;98.20;;;;;;4892334;29;20481;-86
2024/02/01 06:00:42;;;;;;;1.57;1.10;;;8.90;98.20;;;;;;4908864;29;20815;-83
2024/02/01 06:03:09;;;;;;;1.57;1.10;;;8.90;98.20;;;;;;4942895;28;20549;-83
2024/02/01 06:05:36;;;;;;;1.53;1.10;;;8.90;98.20;;;;;;4971820;28;20483;-84
2024/02/01 06:08:05;;;;;;;1.50;1.10;;;8.90;98.20;;;;;;4974394;28;20505;-85
2024/02/01 06:10:32;;;;;;;1.53;1.10;;;8.90;98.20;;;;;;4969863;28;20740;-84
2024/02/01 06:13:19;;;;;;;1.60;1.20;;;8.90;98.20;;;;;;4979495;28;20488;-84
2024/02/01 06:25:55;;;;;;;1.53;1.20;;;8.90;98.20;;;;;;4921569;28;20510;-83
2024/02/01 06:28:27;;;;;;;1.60;1.10;;;8.90;98.20;;;;;;4959349;28;20552;-84
2024/02/01 06:33:57;;;;;;;1.50;1.20;;;8.90;98.20;;;;;;4972263;28;20479;-83
2024/02/01 06:36:34;;;;;;;1.57;1.13;;;8.90;98.20;;;;;;4969857;28;20482;-84
2024/02/01 06:42:01;;;;;;;1.60;1.20;;;8.90;98.20;;;;;;4965243;28;20473;-82
2024/02/01 06:44:31;;;;;;;1.57;1.17;;;8.90;98.20;;;;;;4974097;28;20494;-83
2024/02/01 06:50:15;;;;;;;1.57;1.20;;;8.80;98.20;;;;;;5015540;28;20548;-82
2024/02/01 06:52:43;;;;;;;1.57;1.10;;;8.70;98.20;;;;;;5010079;28;20484;-82
2024/02/01 06:55:36;;;;;;;1.60;1.20;;;8.70;98.20;;;;;;5019075;28;20595;-84
2024/02/01 06:58:17;;;;;;;1.53;1.20;;;8.60;98.20;;;;;;4994652;28;20512;-82
2024/02/01 07:04:07;;;;;;;1.60;1.10;;;8.50;98.20;;;;;;4984241;28;20607;-84
2024/02/01 07:06:38;;;;;;;1.60;1.30;;;8.40;98.20;;;;;;4994674;28;20545;-85
2024/02/01 07:09:27;;;;;;;1.60;1.20;;;8.40;98.20;;;;;;5003361;28;20493;-84
2024/02/01 07:12:15;;;;;;;1.60;1.20;;;8.30;98.20;;;;;;4989419;28;20512;-85
2024/02/01 07:14:48;;;;;;;1.57;1.20;;;8.20;98.20;;;;;;4991400;28;20477;-85
2024/02/01 07:17:28;;;;;;;1.60;1.20;;;8.20;98.20;;;;;;5002884;28;20520;-83
2024/02/01 07:19:56;;;;;;;1.57;1.10;;;8.10;98.20;;;;;;5001825;28;20492;-81
2024/02/01 07:25:11;;;;;;;1.57;1.20;;;8.00;98.20;;;;;;4999941;28;20516;-86
2024/02/01 07:57:55;;;;;;;1.60;1.20;;;7.30;98.20;;;;;;5019003;28;20900;-82
2024/02/01 08:00:31;;;;;;;1.60;1.20;;;7.30;98.20;;;;;;4998091;28;20959;-81
2024/02/01 08:03:11;;;;;;;1.60;1.20;;;7.30;98.20;;;;;;5000652;28;20482;-82
2024/02/01 08:08:23;;;;;;;1.60;1.20;;;7.30;98.20;;;;;;4982155;28;20566;-82
2024/02/01 08:10:56;;;;;;;1.60;1.30;;;7.30;98.20;;;;;;4988171;28;20583;-81
2024/02/01 08:13:26;;;;;;;1.60;1.30;;;7.30;98.20;;;;;;4996942;28;20473;-79
2024/02/01 08:15:55;;;;;;;1.60;1.20;;;7.40;98.20;;;;;;4977721;28;20484;-81
2024/02/01 08:18:25;;;;;;;1.60;1.27;;;7.30;98.20;;;;;;4995999;28;20536;-79
2024/02/01 08:20:53;;;;;;;1.60;1.30;;;7.40;98.20;;;;;;4985403;28;20468;-82
2024/02/01 08:23:20;;;;;;;1.60;1.27;;;7.40;98.20;;;;;;4995310;28;20468;-82
2024/02/01 08:25:47;;;;;;;1.60;1.20;;;7.50;98.20;;;;;;4988525;28;20497;-83
2024/02/01 08:28:14;;;;;;;1.60;1.20;;;7.50;98.20;;;;;;4995093;28;20483;-82
2024/02/01 08:30:42;;;;;;;1.60;1.20;;;7.60;98.20;;;;;;4993697;28;20480;-79
2024/02/01 08:33:15;;;;;;;1.60;1.30;;;7.60;98.20;;;;;;4981543;28;20491;-81
2024/02/01 08:35:44;;;;;;;1.60;1.20;;;7.60;98.20;;;;;;4990426;28;20516;-82
2024/02/01 08:38:11;;;;;;;1.60;1.20;;;7.60;98.20;;;;;;4982842;28;20485;-81
2024/02/01 08:40:41;;;;;;;1.60;1.30;;;7.60;98.20;;;;;;4992701;28;20476;-81
2024/02/01 08:43:09;;;;;;;1.60;1.20;;;7.70;98.20;;;;;;5006278;28;20481;-80
2024/02/01 08:45:39;;;;;;;1.60;1.20;;;7.70;98.20;;;;;;4988573;28;21271;-82
2024/02/01 08:48:08;;;;;;;1.60;1.20;;;7.80;98.20;;;;;;4986516;28;20945;-81
2024/02/01 08:50:42;;;;;;;1.60;1.20;;;7.80;98.20;;;;;;4992624;28;20933;-80
2024/02/01 08:53:11;;;;;;;1.60;1.30;;;7.80;98.20;;;;;;5011550;28;20475;-83
2024/02/01 08:55:38;;;;;;;1.60;1.20;;;7.90;98.20;;;;;;4995911;28;20489;-80
2024/02/01 08:58:09;;;;;;;1.60;1.20;;;7.90;98.20;;;;;;4985010;28;20543;-81
2024/02/01 09:00:36;;;;;;;1.60;1.20;;;8.00;98.20;;;;;;4989710;28;20476;-82
2024/02/01 09:03:05;;;;;;;1.57;1.20;;;8.00;98.20;;;;;;4985007;28;21003;-78
2024/02/01 09:05:34;;;;;;;1.60;1.20;;;8.10;98.20;;;;;;4995315;28;20999;-81
2024/02/01 09:08:02;;;;;;;1.57;1.20;;;8.10;98.20;;;;;;4995704;28;20523;-82
2024/02/01 09:10:30;;;;;;;1.60;1.20;;;8.10;98.20;;;;;;4996376;28;20524;-80
2024/02/01 09:12:57;;;;;;;1.60;1.20;;;8.20;98.20;;;;;;4997864;28;20507;-82
2024/02/01 09:15:24;;;;;;;1.60;1.20;;;8.20;98.20;;;;;;4996398;28;20476;-82
2024/02/01 09:17:51;;;;;;;1.57;1.20;;;8.30;98.20;;;;;;4999697;28;20576;-83
2024/02/01 09:20:19;;;;;;;1.53;1.20;;;8.30;98.20;;;;;;4986554;28;20471;-78
2024/02/01 09:22:48;;;;;;;1.53;1.20;;;8.40;98.20;;;;;;4983908;28;20485;-81
2024/02/01 09:25:15;;;;;;;1.53;1.10;;;8.40;98.20;;;;;;4995824;28;20489;-81
2024/02/01 09:27:45;;;;;;;1.57;1.20;;;8.50;98.20;;;;;;4984840;28;20489;-81
2024/02/01 09:30:12;;;;;;;1.57;1.10;;;8.50;98.20;;;;;;4994875;28;21172;-82
2024/02/01 09:32:39;;;;;;;1.60;1.20;;;8.50;98.20;;;;;;4985785;28;20545;-80
2024/02/01 09:35:07;;;;;;;1.60;1.20;;;8.50;98.20;;;;;;4991260;28;20470;-80
2024/02/01 09:37:33;;;;;;;1.53;1.17;;;8.60;98.20;;;;;;4992132;28;20552;-78
2024/02/01 09:40:01;;;;;;;1.60;1.20;;;8.70;98.20;;;;;;4997711;28;20461;-81
2024/02/01 09:42:28;;;;;;;1.53;1.10;;;8.70;98.20;;;;;;5002680;28;20483;-79
2024/02/01 09:44:58;;;;;;;1.60;1.20;;;8.70;98.20;;;;;;5008596;28;20507;-82
2024/02/01 09:47:25;;;;;;;1.60;1.20;;;8.80;98.20;;;;;;4985454;28;20503;-81
2024/02/01 09:49:54;;;;;;;1.77;1.60;;;8.80;98.20;;;;;;4998848;28;20500;-80
2024/02/01 09:52:21;;;;;;;1.60;1.10;;;8.90;98.20;;;;;;4981843;28;20674;-83
2024/02/01 09:54:49;;;;;;;1.53;1.00;;;8.90;98.20;;;;;;4995417;28;20462;-82
2024/02/01 09:57:17;;;;;;;1.60;1.20;;;9.00;98.20;;;;;;4988230;28;20697;-81
2024/02/01 09:59:44;;;;;;;1.60;1.20;;;9.00;98.20;;;;;;4994985;28;20468;-81
2024/02/01 10:02:13;;;;;;;1.60;1.20;;;9.10;98.20;;;;;;4999973;28;20476;-80
2024/02/01 10:04:40;;;;;;;1.60;1.20;;;9.10;98.20;;;;;;4999628;28;20488;-82
2024/02/01 10:07:09;;;;;;;1.53;1.10;;;9.20;98.20;;;;;;4987707;28;20484;-80
2024/02/01 10:09:37;;;;;;;1.60;1.10;;;9.30;98.20;;;;;;4996270;28;20500;-80
2024/02/01 10:12:06;;;;;;;1.57;1.20;;;9.40;98.20;;;;;;4987044;28;20468;-81
2024/02/01 10:14:38;;;;;;;1.60;1.20;;;9.40;98.20;;;;;;5000766;28;20500;-80
2024/02/01 10:17:06;;;;;;;1.67;1.37;;;9.50;98.20;;;;;;4985080;28;20496;-81
2024/02/01 10:19:37;;;;;;;1.60;1.10;;;9.50;98.20;;;;;;4996119;28;20477;-80
2024/02/01 10:22:08;;;;;;;1.53;1.10;;;9.60;98.20;;;;;;4989760;28;20489;-80
2024/02/01 10:24:44;;;;;;;1.53;1.10;;;9.60;98.20;;;;;;4999953;28;20473;-81
2024/02/01 10:27:13;;;;;;;1.57;1.10;;;9.70;98.20;;;;;;4988364;28;20539;-81
2024/02/01 10:29:41;;;;;;;1.60;1.10;;;9.80;98.20;;;;;;5001957;28;20487;-83
2024/02/01 10:32:13;;;;;;;1.60;1.17;;;10.00;98.20;;;;;;4994419;28;21061;-82
2024/02/01 10:34:45;;;;;;;1.60;1.20;;;10.10;98.20;;;;;;4999139;28;20477;-82
2024/02/01 10:37:15;;;;;;;1.53;1.10;;;10.20;98.20;;;;;;4996466;28;20472;-81
2024/02/01 10:39:50;;;;;;;1.57;1.10;;;10.10;98.20;;;;;;5000350;28;20457;-80
2024/02/01 10:42:22;;;;;;;1.60;1.20;;;10.20;98.20;;;;;;4988196;28;20465;-80
2024/02/01 10:44:51;;;;;;;1.57;1.10;;;10.20;98.20;;;;;;4994023;28;20705;-82
2024/02/01 10:47:22;;;;;;;1.60;1.10;;;10.20;98.20;;;;;;4989308;28;20499;-82
2024/02/01 10:49:53;;;;;;;1.50;1.10;;;10.20;98.20;;;;;;4998250;28;20496;-81
2024/02/01 10:52:21;;;;;;;1.53;1.00;;;10.20;98.20;;;;;;4986717;28;20501;-80
2024/02/01 10:54:49;;;;;;;1.53;1.10;;;10.30;98.20;;;;;;5000339;28;20465;-82
2024/02/01 10:57:17;;;;;;;1.57;1.10;;;10.30;98.20;;;;;;5007845;28;20475;-81
2024/02/01 10:59:45;;;;;;;1.50;1.00;;;10.40;98.20;;;;;;5005466;28;20532;-82
2024/02/01 11:02:14;;;;;;;1.53;1.00;;;10.60;98.20;;;;;;4992769;28;20541;-79
2024/02/01 11:04:45;;;;;;;1.57;1.10;;;10.60;98.20;;;;;;4998007;28;20990;-79
2024/02/01 11:07:21;;;;;;;1.57;1.10;;;10.60;98.20;;;;;;4986863;28;20523;-80
2024/02/01 11:09:49;;;;;;;1.60;1.10;;;10.70;98.20;;;;;;4988610;28;20480;-81
2024/02/01 11:12:22;;;;;;;1.53;1.00;;;10.80;98.20;;;;;;4987034;28;20484;-79
2024/02/01 11:14:50;;;;;;;1.60;1.10;;;10.80;98.20;;;;;;4993403;28;20461;-82
2024/02/01 11:17:20;;;;;;;1.60;1.00;;;10.90;98.20;;;;;;4989219;28;20861;-81
2024/02/01 11:19:49;;;;;;;1.57;1.10;;;10.90;98.20;;;;;;4991566;28;20469;-82
2024/02/01 11:22:18;;;;;;;1.57;1.00;;;10.80;98.20;;;;;;4988143;28;20485;-78
2024/02/01 11:24:46;;;;;;;1.50;1.10;;;10.70;98.20;;;;;;4998972;28;20460;-82
2024/02/01 11:27:15;;;;;;;1.57;1.00;;;10.80;98.20;;;;;;4990323;28;20491;-83
2024/02/01 11:29:46;;;;;;;1.53;1.03;;;10.80;98.20;;;;;;5001929;28;20971;-82
2024/02/01 11:32:16;;;;;;;1.53;1.10;;;10.80;98.20;;;;;;4991465;28;20585;-82
2024/02/01 11:34:49;;;;;;;1.60;1.10;;;10.70;98.20;;;;;;5002374;28;20465;-82
2024/02/01 11:37:17;;;;;;;1.53;1.07;;;10.80;98.20;;;;;;4990126;28;20519;-79
2024/02/01 11:39:47;;;;;;;1.57;1.10;;;10.80;98.20;;;;;;5003634;28;20465;-79
2024/02/01 11:42:15;;;;;;;1.53;1.00;;;11.00;98.20;;;;;;4993318;28;21083;-82
2024/02/01 11:44:43;;;;;;;1.57;1.00;;;11.00;98.20;;;;;;5002845;28;20527;-78
2024/02/01 11:47:10;;;;;;;1.57;1.10;;;11.00;98.20;;;;;;5009330;28;20491;-80
2024/02/01 11:49:37;;;;;;;1.60;1.10;;;11.00;98.20;;;;;;5001148;28;20469;-81
2024/02/01 11:52:15;;;;;;;1.60;1.10;;;10.90;98.20;;;;;;4988882;28;20480;-81
2024/02/01 11:54:46;;;;;;;1.57;1.10;;;10.60;98.20;;;;;;4998356;28;20550;-81
2024/02/01 11:57:17;;;;;;;1.53;1.10;;;10.50;98.20;;;;;;5003234;28;20534;-80
2024/02/01 11:59:44;;;;;;;1.57;1.10;;;10.40;98.20;;;;;;5001165;28;20469;-80
2024/02/01 12:02:11;;;;;;;1.60;1.10;;;10.30;98.20;;;;;;5005974;28;20561;-80
2024/02/01 12:04:41;;;;;;;1.60;1.20;;;10.20;98.20;;;;;;5010329;28;20553;-80
2024/02/01 12:07:08;;;;;;;1.53;1.10;;;10.30;98.20;;;;;;4995610;28;20496;-83
2024/02/01 12:09:35;;;;;;;1.50;1.00;;;10.50;98.20;;;;;;5003341;28;20871;-82
2024/02/01 12:12:03;;;;;;;1.60;1.20;;;10.60;98.20;;;;;;4988099;28;20507;-83
2024/02/01 12:14:32;;;;;;;1.57;1.10;;;10.80;98.20;;;;;;4995075;28;20549;-82
2024/02/01 12:17:01;;;;;;;1.60;1.13;;;10.90;98.20;;;;;;4994325;28;20486;-80
2024/02/01 12:19:37;;;;;;;1.60;1.20;;;11.00;98.20;;;;;;4998224;28;20472;-83
2024/02/01 12:22:04;;;;;;;1.60;1.10;;;11.20;98.20;;;;;;4990858;28;20476;-81
2024/02/01 12:24:34;;;;;;;1.60;1.20;;;11.20;98.20;;;;;;5000286;28;20472;-82
2024/02/01 12:27:01;;;;;;;1.57;1.10;;;11.20;98.20;;;;;;4986207;28;20492;-82
2024/02/01 12:29:28;;;;;;;1.60;1.03;;;11.30;98.20;;;;;;4998992;28;20573;-81
2024/02/01 12:31:57;;;;;;;1.57;1.00;;;11.40;98.20;;;;;;4989700;28;20508;-82
2024/02/01 12:34:25;;;;;;;1.60;1.10;;;11.40;98.20;;;;;;4996307;28;20512;-81
2024/02/01 12:36:52;;;;;;;1.53;1.00;;;11.40;98.20;;;;;;4992268;28;20482;-79
2024/02/01 12:39:19;;;;;;;1.57;1.10;;;11.40;98.20;;;;;;4998436;28;20469;-79
2024/02/01 12:41:48;;;;;;;1.60;1.00;;;11.30;98.20;;;;;;4995419;28;20547;-83
2024/02/01 12:44:15;;;;;;;1.60;1.10;;;11.30;98.20;;;;;;4998773;28;20475;-80
2024/02/01 12:46:43;;;;;;;1.50;1.00;;;11.20;98.20;;;;;;4992600;28;20503;-82
2024/02/01 12:49:13;;;;;;;1.53;1.00;;;11.20;98.20;;;;;;4995859;28;20541;-79
2024/02/01 12:51:41;;;;;;;1.53;1.10;;;11.10;98.20;;;;;;4988036;28;20784;-81
2024/02/01 12:54:09;;;;;;;1.57;1.00;;;10.90;98.20;;;;;;4995883;28;20495;-82
2024/02/01 12:56:37;;;;;;;1.50;1.00;;;10.80;98.20;;;;;;4987670;28;20483;-83
2024/02/01 12:59:04;;;;;;;1.53;1.00;;;10.70;98.20;;;;;;4996231;28;20465;-81
2024/02/01 13:01:32;;;;;;;1.53;1.00;;;10.70;98.20;;;;;;4988220;28;20481;-80
2024/02/01 13:03:59;;;;;;;1.60;1.10;;;10.90;98.20;;;;;;4995712;28;20476;-80
2024/02/01 13:06:28;;;;;;;1.60;1.10;;;11.00;98.20;;;;;;4979263;28;20604;-81
2024/02/01 13:08:54;;;;;;;1.60;1.10;;;11.10;98.20;;;;;;4996177;28;20472;-82
2024/02/01 13:11:27;;;;;;;1.53;1.00;;;11.20;98.20;;;;;;4982356;28;20563;-82
2024/02/01 13:13:55;;;;;;;1.53;1.10;;;11.30;98.20;;;;;;5000489;28;21003;-79
2024/02/01 13:16:24;;;;;;;1.57;1.00;;;11.40;98.20;;;;;;4989960;28;20489;-81
2024/02/01 13:18:51;;;;;;;1.53;1.00;;;11.40;98.20;;;;;;5003697;28;20461;-81
2024/02/01 13:22:17;;;;;;;1.53;1.03;;;11.40;98.20;;;;;;4992080;28;20571;-80
2024/02/01 13:24:46;;;;;;;1.57;1.10;;;11.50;98.20;;;;;;4991146;28;20496;-81
2024/02/01 13:27:13;;;;;;;1.60;1.10;;;11.60;98.20;;;;;;4992311;28;20543;-82
2024/02/01 13:29:40;;;;;;;1.50;1.10;;;11.60;98.20;;;;;;5002489;28;20465;-80
2024/02/01 13:32:08;;;;;;;1.53;1.00;;;11.60;98.20;;;;;;4983875;28;20483;-79
2024/02/01 13:34:37;;;;;;;1.60;1.10;;;11.60;98.20;;;;;;4996602;28;20456;-82
2024/02/01 13:37:05;;;;;;;1.57;1.10;;;11.60;98.20;;;;;;4989232;28;21037;-80
2024/02/01 13:39:33;;;;;;;1.50;1.00;;;11.60;98.20;;;;;;4995891;28;20488;-79
2024/02/01 13:42:02;;;;;;;1.53;1.10;;;11.50;98.20;;;;;;4992075;28;20479;-78
2024/02/01 13:44:29;;;;;;;1.53;1.00;;;11.40;98.20;;;;;;4998718;28;20464;-80
2024/02/01 13:46:56;;;;;;;1.50;1.00;;;11.30;98.20;;;;;;4990265;28;20505;-78
2024/02/01 13:49:23;;;;;;;1.50;1.10;;;11.30;98.20;;;;;;5004561;28;21035;-78
2024/02/01 13:51:50;;;;;;;1.53;1.00;;;11.30;98.20;;;;;;4990473;28;20476;-79
2024/02/01 13:54:18;;;;;;;1.60;1.10;;;11.20;98.20;;;;;;4997192;28;20479;-78
2024/02/01 13:56:45;;;;;;;1.60;1.10;;;11.20;98.20;;;;;;4990941;28;20488;-79
2024/02/01 13:59:13;;;;;;;1.53;1.10;;;11.10;98.20;;;;;;4994287;28;21031;-78
2024/02/01 14:01:40;;;;;;;1.53;1.00;;;11.10;98.20;;;;;;4989055;28;20477;-79
2024/02/01 14:04:07;;;;;;;1.57;1.00;;;11.10;98.20;;;;;;5006748;28;20479;-80
2024/02/01 14:06:34;;;;;;;1.57;1.10;;;11.00;98.20;;;;;;4987443;28;20559;-79
2024/02/01 14:09:06;;;;;;;1.60;1.00;;;10.90;98.20;;;;;;4994780;28;20476;-80
2024/02/01 14:11:38;;;;;;;1.57;1.10;;;10.80;98.20;;;;;;4985114;28;20477;-78
2024/02/01 14:14:05;;;;;;;1.57;1.00;;;10.70;98.20;;;;;;5000461;28;20468;-78
2024/02/01 14:16:34;;;;;;;1.57;1.00;;;10.70;98.20;;;;;;4986898;28;20528;-79
2024/02/01 14:19:00;;;;;;;1.57;1.10;;;10.60;98.20;;;;;;4993849;28;20505;-78
2024/02/01 14:21:28;;;;;;;1.53;1.00;;;10.70;98.20;;;;;;4987850;28;20480;-79
2024/02/01 14:23:56;;;;;;;1.53;1.10;;;10.60;98.20;;;;;;4992962;28;20860;-80
2024/02/01 14:26:24;;;;;;;1.57;1.10;;;10.60;98.20;;;;;;4988562;28;20488;-79
2024/02/01 14:28:51;;;;;;;1.60;1.10;;;10.50;98.20;;;;;;5003073;28;20557;-80
2024/02/01 14:31:17;;;;;;;1.50;1.00;;;10.50;98.20;;;;;;4984885;28;20493;-77
2024/02/01 14:33:47;;;;;;;1.57;1.10;;;10.40;98.20;;;;;;4996179;28;20469;-79
2024/02/01 14:36:13;;;;;;;1.53;1.10;;;10.40;98.20;;;;;;4982965;28;20557;-77
2024/02/01 14:38:41;;;;;;;1.53;1.00;;;10.30;98.20;;;;;;5000622;28;20475;-80
2024/02/01 14:41:10;;;;;;;1.53;1.00;;;10.20;98.20;;;;;;4989179;28;20521;-79